Bei Facebook empfehlenBei Twitter postenGoogle plusPinterest

Das Wetter im Erzgebirge am 07.06.2015

Wetter und Klima am 07.06.2015 Holzhau im Erzgebirge (630m ü.NN)
Letzte gemessene Temperatur und Uhrzeit der Messung23:45:00 Uhr9.50 °C
Temperatur (Maximum / Höchstwert) und Uhrzeit der Messung16:30:00 Uhr21.50 °C
Temperatur (Minimum / Tiefstwert) und Uhrzeit der Messung23:45:009.50 °C
Errechneter Absolutwert der Temperaturschwankungen zwischen Tmin und Tmax des Tages12.00 K
Errechnete Tagesmitteltemperatur15.93542 °C
Gesamt - Niederschlag des Tages (in flüssiger Form)2.07 Liter / m²
Luftdruck (Maximum / Höchstwert) und Zeitpunkt der Messung14:30:00 Uhr1025.40 hPa
Luftdruck (Minimum / Tiefstwert) und Zeitpunkt der Messung01:45:00 Uhr1023.10 hPa
Errechneter Absolutwert der Luftdruckschwankungen des Tages2.30 hPa
Höchste gemessene Windgeschwindigkeit und Uhrzeit der Messung09:45:00 Uhr19.80 km/h
Errechnete Windhäufigkeit in Relation zu den Messwerten des Tages6.25000 %
Niedrigste Windkühle (Windchill) und Zeitpunkt der Messung23:45:00 Uhr9.50 °C
Taupunkt (Maximum / Höchstwert) und Uhrzeit der Messung16:30:00 Uhr14.60 °C
Taupunkt (Minimum / Tiefstwert) und Uhrzeit der Messung23:45:007.40 °C
Anzahl der automatisch eingelesenen Messwerte 96

Detaillierte Wetter- und Klima- Messwerte für den 07.06.2015 in Holzhau im Erzgebirge (630m ü.NN)
ZeitTemperaturLuftdruckRel. LuftfeuchteWindWindrichtungWindchillTaupunktNiederschlag l/m²
23:45:009.50 °C1023.90 hPa87.00 %7.40 °C2.07
23:30:009.60 °C1024.00 hPa87.00 %7.50 °C2.07
23:15:009.90 °C1023.90 hPa86.00 %7.70 °C2.07
23:00:0010.20 °C1024.10 hPa85.00 %7.80 °C2.07
22:45:0010.60 °C1024.20 hPa85.00 %8.20 °C2.07
22:30:0010.90 °C1024.40 hPa83.00 %8.10 °C2.07
22:15:0011.30 °C1024.30 hPa82.00 %8.30 °C2.07
22:00:0011.90 °C1024.30 hPa81.00 %8.70 °C2.07
21:45:0012.40 °C1024.20 hPa81.00 %9.20 °C2.07
21:30:0012.90 °C1024.20 hPa79.00 %9.40 °C2.07
21:15:0013.50 °C1024.20 hPa78.00 %9.70 °C2.07
21:00:0014.10 °C1024.20 hPa77.00 %10.10 °C2.07
20:45:0014.60 °C1024.10 hPa76.00 %10.40 °C2.07
20:30:0015.10 °C1024.00 hPa75.00 %10.70 °C2.07
20:15:0015.50 °C1024.10 hPa74.00 %10.90 °C2.07
20:00:0015.80 °C1024.20 hPa73.00 %11.00 °C2.07
19:45:0016.20 °C1024.20 hPa71.00 %10.90 °C2.07
19:30:0016.50 °C1024.20 hPa71.00 %11.20 °C2.07
19:15:0017.10 °C1024.70 hPa69.00 %11.40 °C2.07
19:00:0017.30 °C1024.70 hPa70.00 %11.80 °C2.07
18:45:0017.20 °C1024.80 hPa71.00 %11.90 °C2.07
18:30:0016.90 °C1024.90 hPa71.00 %11.60 °C2.07
18:15:0017.40 °C1025.00 hPa69.00 %11.70 °C2.07
18:00:0017.90 °C1024.70 hPa69.00 %6.84 km/hOSO18.40 °C12.10 °C2.07
17:45:0018.40 °C1024.70 hPa67.00 %12.20 °C2.07
17:30:0019.10 °C1024.80 hPa67.00 %12.80 °C2.07
17:15:0019.50 °C1024.80 hPa67.00 %13.20 °C2.07
17:00:0019.80 °C1024.80 hPa65.00 %4.68 km/hNO19.80 °C13.00 °C2.07
16:45:0021.30 °C1024.80 hPa63.00 %14.00 °C2.07
16:30:0021.50 °C1024.70 hPa65.00 %14.60 °C2.07
16:15:0021.10 °C1024.80 hPa65.00 %14.30 °C2.07
16:00:0021.20 °C1024.80 hPa65.00 %14.40 °C2.07
15:45:0020.90 °C1024.80 hPa67.00 %14.50 °C2.07
15:30:0020.80 °C1025.00 hPa66.00 %14.20 °C2.07
15:15:0019.90 °C1025.00 hPa68.00 %13.80 °C2.07
15:00:0019.80 °C1025.20 hPa67.00 %13.50 °C2.07
14:45:0019.10 °C1025.30 hPa67.00 %12.80 °C2.07
14:30:0019.30 °C1025.40 hPa68.00 %13.20 °C2.07
14:15:0019.50 °C1025.20 hPa68.00 %13.40 °C2.07
14:00:0019.30 °C1025.10 hPa67.00 %13.00 °C2.07
13:45:0019.00 °C1025.20 hPa69.00 %13.20 °C2.07
13:30:0019.00 °C1025.00 hPa67.00 %12.70 °C2.07
13:15:0020.10 °C1025.30 hPa67.00 %13.80 °C2.07
13:00:0019.40 °C1024.90 hPa68.00 %13.30 °C2.07
12:45:0020.10 °C1025.00 hPa69.00 %14.20 °C2.07
12:30:0019.60 °C1024.90 hPa71.00 %14.20 °C2.07
12:15:0018.40 °C1025.00 hPa72.00 %13.30 °C2.07
12:00:0018.50 °C1024.80 hPa73.00 %10.80 km/hONO18.70 °C13.60 °C2.07
11:45:0018.40 °C1024.70 hPa75.00 %13.90 °C2.07
11:30:0017.30 °C1025.00 hPa78.00 %13.40 °C2.07
11:15:0016.70 °C1025.20 hPa79.00 %13.00 °C2.07
11:00:0016.80 °C1024.70 hPa81.00 %13.50 °C2.07
10:45:0015.80 °C1024.70 hPa84.00 %13.10 °C2.07
10:30:0014.70 °C1024.70 hPa87.00 %12.60 °C2.07
10:15:0013.70 °C1024.50 hPa89.00 %11.90 °C2.07
10:00:0012.80 °C1024.20 hPa89.00 %11.00 °C2.07
09:45:0012.60 °C1024.20 hPa89.00 %19.80 km/hSO10.70 °C10.80 °C2.07
09:30:0012.90 °C1024.60 hPa89.00 %7.92 km/hSO12.40 °C11.10 °C2.07
09:15:0013.60 °C1024.50 hPa91.00 %12.20 °C2.07
09:00:0013.50 °C1024.70 hPa91.00 %12.10 °C2.07
08:45:0013.70 °C1024.50 hPa91.00 %8.64 km/hOSO13.30 °C12.30 °C2.07
08:30:0013.90 °C1024.50 hPa91.00 %12.50 °C2.07
08:15:0013.90 °C1024.90 hPa91.00 %12.50 °C1.55
08:00:0014.30 °C1024.70 hPa90.00 %12.70 °C1.55
07:45:0014.50 °C1025.10 hPa90.00 %12.90 °C1.55
07:30:0014.80 °C1025.10 hPa89.00 %13.00 °C0.52
07:15:0015.10 °C1025.10 hPa90.00 %13.50 °C 
07:00:0015.30 °C1024.70 hPa89.00 %13.50 °C 
06:45:0015.30 °C1024.70 hPa90.00 %13.70 °C 
06:30:0015.30 °C1024.60 hPa90.00 %13.70 °C 
06:15:0015.30 °C1024.10 hPa90.00 %13.70 °C 
06:00:0015.20 °C1024.00 hPa90.00 %13.60 °C 
05:45:0015.20 °C1024.10 hPa90.00 %13.60 °C 
05:30:0015.20 °C1024.00 hPa90.00 %13.60 °C 
05:15:0015.10 °C1023.80 hPa91.00 %13.60 °C 
05:00:0014.90 °C1024.00 hPa91.00 %13.40 °C 
04:45:0014.60 °C1023.90 hPa91.00 %13.10 °C 
04:30:0014.40 °C1023.20 hPa90.00 %12.80 °C 
04:15:0014.40 °C1023.20 hPa90.00 %12.80 °C 
04:00:0014.30 °C1023.40 hPa90.00 %12.70 °C 
03:45:0014.30 °C1023.30 hPa90.00 %12.70 °C 
03:30:0014.40 °C1023.20 hPa89.00 %12.60 °C 
03:15:0014.60 °C1023.20 hPa89.00 %12.80 °C 
03:00:0014.80 °C1023.40 hPa89.00 %13.00 °C 
02:45:0014.90 °C1023.30 hPa89.00 %13.10 °C 
02:30:0014.90 °C1023.40 hPa89.00 %13.10 °C 
02:15:0015.00 °C1023.40 hPa89.00 %13.20 °C 
02:00:0015.20 °C1023.20 hPa88.00 %13.20 °C 
01:45:0015.40 °C1023.10 hPa88.00 %13.40 °C 
01:30:0015.80 °C1023.20 hPa88.00 %13.80 °C 
01:15:0016.20 °C1023.20 hPa88.00 %14.20 °C 
01:00:0016.40 °C1023.30 hPa88.00 %14.40 °C 
00:45:0016.40 °C1023.40 hPa88.00 %14.40 °C 
00:30:0016.40 °C1023.30 hPa88.00 %14.40 °C 
00:15:0016.40 °C1023.20 hPa88.00 %14.40 °C 
00:00:0016.30 °C1023.50 hPa88.00 %14.30 °C 

Permanenter Link zu dieser Seite: Wetter im Erzgebirge am 07.06.2015
Performance-Info: Die Erstellung der Seite / Statistik(en) / Tabelle(n) erforderte 5 Datenbankserver-Abfrage(n) und dauerte 127 Millisekunden. (Dieser Messwert ist von der Gesamt-Auslastung des Servers abhängig.)
Erzgebirge - Wetter | Erzgebirge - Wetter (Mobilgeräte) | Komplette Klimadatenbank